createdAt,value
2017-05-16T04:44:08.938Z,42.04
2017-05-16T04:44:34.422Z,41.94
2017-05-16T04:44:59.892Z,42.02
2017-05-16T04:45:25.387Z,41.94
2017-05-16T04:45:50.852Z,42.04
2017-05-16T04:46:16.332Z,42.4
2017-05-16T04:46:41.808Z,42.11
2017-05-16T04:47:07.256Z,41.93
2017-05-16T04:47:32.724Z,42.23
2017-05-16T04:47:58.187Z,42.33
2017-05-16T04:48:23.655Z,42.4
2017-05-16T04:48:49.130Z,41.94
2017-05-16T04:49:14.594Z,41.85
2017-05-16T04:49:40.071Z,41.85
2017-05-16T04:50:05.560Z,41.66
2017-05-16T04:50:31.008Z,41.85
2017-05-16T04:50:56.578Z,41.75
2017-05-16T04:51:22.006Z,42.04
2017-05-16T04:51:47.472Z,42.04
2017-05-16T04:52:12.974Z,41.94
2017-05-16T04:52:38.422Z,41.75
2017-05-16T04:53:03.899Z,42.52
2017-05-16T04:53:29.378Z,42.23
2017-05-16T04:53:54.826Z,42.23
2017-05-16T04:54:20.294Z,42.23
2017-05-16T04:54:45.790Z,42.23
2017-05-16T04:55:11.259Z,42.13
2017-05-16T04:55:36.729Z,42.23
2017-05-16T04:56:02.224Z,42.52
2017-05-16T04:56:27.752Z,42.43
2017-05-16T04:56:53.218Z,42.33
2017-05-16T04:57:18.720Z,41.85
2017-05-16T04:57:44.214Z,42.33
2017-05-16T04:58:09.685Z,42.52
2017-05-16T04:58:35.176Z,42.33
2017-05-16T04:59:00.660Z,42.43
2017-05-16T04:59:26.181Z,42.33
2017-05-16T04:59:51.634Z,42.23
2017-05-16T05:00:17.130Z,42.13
2017-05-16T05:00:42.605Z,42.33
2017-05-16T05:01:08.081Z,42.23
2017-05-16T05:01:33.567Z,42.33
2017-05-16T05:01:59.045Z,42.23
2017-05-16T05:02:24.506Z,42.23
2017-05-16T05:02:49.993Z,42.33
2017-05-16T05:03:15.487Z,42.43
2017-05-16T05:03:40.953Z,42.23
2017-05-16T05:04:06.435Z,42.52
2017-05-16T05:04:31.896Z,42.43
2017-05-16T05:04:57.382Z,42.23
2017-05-16T05:05:22.853Z,42.23
2017-05-16T05:05:48.365Z,42.23
2017-05-16T05:06:13.842Z,42.43
2017-05-16T05:06:39.338Z,42.23
2017-05-16T05:07:04.794Z,42.33
2017-05-16T05:07:30.261Z,42.23
2017-05-16T05:07:55.734Z,42.23
2017-05-16T05:08:21.228Z,42.23
2017-05-16T05:08:46.667Z,42.23
2017-05-16T05:09:12.145Z,42.23
2017-05-16T05:09:37.608Z,42.23
2017-05-16T05:10:03.113Z,42.23
2017-05-16T05:10:28.599Z,42.23
2017-05-16T05:10:54.115Z,42.13
2017-05-16T05:11:19.579Z,42.13
2017-05-16T05:11:45.055Z,42.33
2017-05-16T05:12:10.511Z,42.43
2017-05-16T05:12:35.983Z,42.52
2017-05-16T05:13:01.493Z,42.61
2017-05-16T05:13:26.942Z,42.52
2017-05-16T05:13:52.421Z,42.71
2017-05-16T05:14:17.889Z,42.61
2017-05-16T05:14:43.355Z,42.61
2017-05-16T05:15:08.833Z,42.43
2017-05-16T05:15:34.307Z,42.52
2017-05-16T05:15:59.794Z,42.61
2017-05-16T05:16:25.276Z,42.71
2017-05-16T05:16:50.759Z,42.71
2017-05-16T05:17:16.262Z,42.71
2017-05-16T05:17:41.761Z,42.71
2017-05-16T05:18:07.227Z,42.71
2017-05-16T05:18:32.713Z,42.71
2017-05-16T05:18:58.177Z,42.71
2017-05-16T05:19:23.657Z,42.43
2017-05-16T05:19:49.147Z,42.43
2017-05-16T05:20:14.622Z,42.52
2017-05-16T05:20:40.085Z,42.33
2017-05-16T05:21:05.564Z,42.44
2017-05-16T05:21:31.035Z,42.44
2017-05-16T05:21:56.510Z,42.83
2017-05-16T05:22:21.987Z,42.73
2017-05-16T05:22:47.479Z,42.73
2017-05-16T05:23:12.959Z,42.73
2017-05-16T05:23:38.447Z,42.83
2017-05-16T05:24:03.938Z,42.44
2017-05-16T05:24:29.418Z,42.44
2017-05-16T05:24:54.885Z,42.35
2017-05-16T05:25:20.354Z,42.44
2017-05-16T05:25:45.854Z,42.35
2017-05-16T05:26:11.341Z,42.64
2017-05-16T05:26:36.838Z,42.25
2017-05-16T05:27:02.310Z,42.35
2017-05-16T05:27:27.813Z,42.25
2017-05-16T05:27:53.302Z,42.25
2017-05-16T05:28:18.807Z,42.25
2017-05-16T05:28:44.301Z,42.25
2017-05-16T05:29:09.793Z,42.25
2017-05-16T05:29:35.308Z,42.35
2017-05-16T05:30:00.766Z,42.16
2017-05-16T05:30:26.260Z,42.25
2017-05-16T05:30:51.737Z,42.25
2017-05-16T05:31:17.225Z,42.06
2017-05-16T05:31:42.701Z,42.16
2017-05-16T05:32:08.190Z,42.25
2017-05-16T05:32:33.645Z,42.16
2017-05-16T05:32:59.127Z,42.25
2017-05-16T05:33:24.625Z,42.35
2017-05-16T05:33:50.100Z,42.16
2017-05-16T05:34:15.582Z,42.06
2017-05-16T05:34:41.040Z,42.25
2017-05-16T05:35:06.526Z,42.25
2017-05-16T05:35:31.978Z,42.25
2017-05-16T05:35:57.494Z,42.35
2017-05-16T05:36:22.968Z,42.73
2017-05-16T05:36:48.456Z,42.83
2017-05-16T05:37:13.919Z,42.73
2017-05-16T05:37:39.398Z,42.64
2017-05-16T05:38:04.857Z,42.64
2017-05-16T05:38:30.344Z,42.73
2017-05-16T05:38:55.830Z,42.73
2017-05-16T05:39:21.343Z,42.54
2017-05-16T05:39:46.849Z,42.25
2017-05-16T05:40:12.341Z,42.16
2017-05-16T05:40:37.800Z,42.25
2017-05-16T05:41:03.280Z,42.25
2017-05-16T05:41:28.756Z,42.06
2017-05-16T05:41:54.239Z,42.25
2017-05-16T05:42:19.708Z,42.25
2017-05-16T05:42:45.180Z,42.73
2017-05-16T05:43:10.686Z,42.83
2017-05-16T05:43:36.181Z,42.73
2017-05-16T05:44:01.653Z,42.73
2017-05-16T05:44:27.129Z,42.64
2017-05-16T05:44:52.628Z,42.44
2017-05-16T05:45:18.095Z,42.54
2017-05-16T05:45:43.570Z,42.54
2017-05-16T05:46:09.046Z,42.64
2017-05-16T05:46:34.526Z,42.64
2017-05-16T05:47:00.005Z,42.64
2017-05-16T05:47:25.471Z,42.44
2017-05-16T05:47:50.967Z,42.35
2017-05-16T05:48:16.432Z,42.35
2017-05-16T05:48:41.905Z,42.35
2017-05-16T05:49:07.373Z,42.16
2017-05-16T05:49:32.849Z,42.35
2017-05-16T05:49:58.342Z,42.35
2017-05-16T05:50:23.821Z,42.44
2017-05-16T05:50:49.297Z,42.54
2017-05-16T05:51:14.766Z,42.54
2017-05-16T05:51:40.251Z,42.73
2017-05-16T05:52:05.755Z,42.44
2017-05-16T05:52:31.258Z,42.73
2017-05-16T05:52:56.745Z,42.35
2017-05-16T05:53:22.239Z,42.06
2017-05-16T05:53:47.713Z,42.54
2017-05-16T05:54:13.218Z,42.73
2017-05-16T05:54:38.700Z,42.64
2017-05-16T05:55:04.176Z,42.73
2017-05-16T05:55:29.675Z,42.64
2017-05-16T05:55:55.155Z,42.35
2017-05-16T05:56:20.635Z,42.44
2017-05-16T05:56:46.115Z,42.44
2017-05-16T05:57:11.612Z,42.44
2017-05-16T05:57:37.091Z,42.44
2017-05-16T05:58:02.582Z,42.44
2017-05-16T05:58:28.080Z,42.54
2017-05-16T05:58:53.541Z,42.44
2017-05-16T05:59:19.030Z,42.64
2017-05-16T05:59:44.532Z,42.54
2017-05-16T06:00:10.031Z,42.44
2017-05-16T06:00:35.517Z,42.73
2017-05-16T06:01:00.998Z,42.76
2017-05-16T06:01:26.485Z,42.83
2017-05-16T06:01:51.949Z,42.73
2017-05-16T06:02:17.426Z,42.64
2017-05-16T06:02:42.902Z,42.66
2017-05-16T06:03:08.385Z,43.14
2017-05-16T06:03:33.879Z,43.33
2017-05-16T06:03:59.340Z,42.66
2017-05-16T06:04:24.818Z,43.04
2017-05-16T06:04:50.306Z,42.76
2017-05-16T06:05:15.800Z,42.76
2017-05-16T06:05:41.280Z,42.85
2017-05-16T06:06:06.752Z,42.56
2017-05-16T06:06:32.258Z,42.66
2017-05-16T06:06:57.747Z,42.66
2017-05-16T06:07:23.242Z,42.76
2017-05-16T06:07:48.724Z,42.37
2017-05-16T06:08:14.202Z,42.85
2017-05-16T06:08:39.664Z,42.18
2017-05-16T06:09:05.152Z,42.76
2017-05-16T06:09:30.628Z,42.56
2017-05-16T06:09:56.118Z,42.56
2017-05-16T06:10:21.608Z,42.76
2017-05-16T06:10:47.089Z,42.56
2017-05-16T06:11:12.576Z,42.37
2017-05-16T06:11:38.040Z,42.47
2017-05-16T06:12:03.521Z,42.76
2017-05-16T06:12:29.020Z,42.27
2017-05-16T06:12:54.549Z,42.18
2017-05-16T06:13:20.029Z,42.37
2017-05-16T06:13:45.518Z,41.79
2017-05-16T06:14:10.949Z,42.47
2017-05-16T06:14:36.436Z,42.27
2017-05-16T06:15:01.900Z,42.27
2017-05-16T06:15:27.425Z,42.27
2017-05-16T06:15:52.930Z,42.37
2017-05-16T06:16:18.385Z,42.27
2017-05-16T06:16:43.899Z,42.18
2017-05-16T06:17:09.380Z,41.7
2017-05-16T06:17:34.878Z,42.37
2017-05-16T06:18:00.397Z,42.27
2017-05-16T06:18:25.860Z,42.27
2017-05-16T06:18:51.326Z,42.08
2017-05-16T06:19:16.799Z,42.08
2017-05-16T06:19:42.282Z,42.18
2017-05-16T06:20:07.765Z,42.47
2017-05-16T06:20:33.260Z,42.37
2017-05-16T06:20:58.749Z,42.85
2017-05-16T06:21:24.240Z,42.66
2017-05-16T06:21:49.714Z,42.56
2017-05-16T06:22:15.181Z,42.47
2017-05-16T06:22:40.656Z,42.37
2017-05-16T06:23:06.141Z,42.66
2017-05-16T06:23:31.623Z,42.47
2017-05-16T06:23:57.106Z,42.85
2017-05-16T06:24:22.596Z,42.18
2017-05-16T06:24:48.075Z,42.27
2017-05-16T06:25:13.568Z,42.18
2017-05-16T06:25:39.059Z,42.18
2017-05-16T06:26:04.555Z,42.56
2017-05-16T06:26:30.045Z,42.66
2017-05-16T06:26:55.501Z,41.99
2017-05-16T06:27:20.970Z,42.76
2017-05-16T06:27:46.433Z,42.66
2017-05-16T06:28:11.924Z,42.76
2017-05-16T06:28:37.428Z,42.85
2017-05-16T06:29:02.891Z,42.18
2017-05-16T06:29:28.357Z,42.76
2017-05-16T06:29:53.834Z,42.66
2017-05-16T06:30:19.309Z,42.56
2017-05-16T06:30:44.788Z,42.47
2017-05-16T06:31:10.297Z,42.47
2017-05-16T06:31:35.739Z,42.47
2017-05-16T06:32:01.207Z,42.56
2017-05-16T06:32:26.708Z,42.47
2017-05-16T06:32:52.203Z,42.37
2017-05-16T06:33:17.696Z,42.76
2017-05-16T06:33:43.160Z,42.66
2017-05-16T06:34:08.626Z,42.56
2017-05-16T06:34:34.081Z,42.66
2017-05-16T06:34:59.569Z,42.56
2017-05-16T06:35:25.079Z,42.47
2017-05-16T06:35:50.557Z,42.56
2017-05-16T06:36:16.046Z,42.56
2017-05-16T06:36:41.536Z,42.56
2017-05-16T06:37:07.032Z,42.85
2017-05-16T06:37:32.511Z,42.56
2017-05-16T06:37:57.997Z,42.66
2017-05-16T06:38:23.500Z,42.66
2017-05-16T06:38:48.991Z,43.14
2017-05-16T06:39:14.477Z,42.85
2017-05-16T06:39:39.954Z,43.04
2017-05-16T06:40:05.463Z,43.33
2017-05-16T06:40:30.918Z,43.43
2017-05-16T06:40:56.383Z,42.94
2017-05-16T06:41:21.838Z,42.85
2017-05-16T06:41:47.281Z,42.66
2017-05-16T06:42:12.760Z,42.66
2017-05-16T06:42:38.240Z,42.56
2017-05-16T06:43:03.715Z,43.23
2017-05-16T06:43:29.217Z,42.94
2017-05-16T06:43:54.703Z,42.85
2017-05-16T06:44:20.169Z,42.66
2017-05-16T06:44:45.631Z,42.85
2017-05-16T06:45:11.095Z,42.85
2017-05-16T06:45:36.623Z,43.43
2017-05-16T06:46:02.064Z,43.14
2017-05-16T06:46:27.599Z,43.14
2017-05-16T06:46:53.060Z,43.33
2017-05-16T06:47:18.533Z,43.23
2017-05-16T06:47:43.981Z,43.04
2017-05-16T06:48:09.470Z,42.94
2017-05-16T06:48:34.960Z,43.23
2017-05-16T06:49:00.430Z,43.23
2017-05-16T06:49:25.905Z,43.14
2017-05-16T06:49:51.380Z,43.14
2017-05-16T06:50:16.866Z,43.33
2017-05-16T06:50:42.344Z,43.43
2017-05-16T06:51:07.814Z,43.33
2017-05-16T06:51:33.313Z,43.23
2017-05-16T06:51:58.815Z,43.33
2017-05-16T06:52:24.298Z,43.52
2017-05-16T06:52:49.812Z,43.52
2017-05-16T06:53:15.231Z,43.52
2017-05-16T06:53:40.698Z,43.54
2017-05-16T06:54:06.175Z,43.62
2017-05-16T06:54:31.655Z,43.43
2017-05-16T06:54:57.123Z,43.52
2017-05-16T06:55:22.592Z,43.45
2017-05-16T06:55:48.062Z,43.54
2017-05-16T06:56:13.534Z,43.62
2017-05-16T06:56:39.005Z,43.54
2017-05-16T06:57:04.469Z,43.26
2017-05-16T06:57:29.973Z,43.26
2017-05-16T06:57:55.473Z,43.35
2017-05-16T06:58:20.939Z,43.35
2017-05-16T06:58:46.409Z,43.35
2017-05-16T06:59:11.900Z,43.35
2017-05-16T06:59:37.363Z,43.26
2017-05-16T07:00:02.826Z,43.16
2017-05-16T07:00:28.320Z,43.45
2017-05-16T07:00:53.807Z,43.16
2017-05-16T07:01:19.268Z,43.26
2017-05-16T07:01:44.738Z,43.54
2017-05-16T07:02:10.223Z,43.54
2017-05-16T07:02:35.689Z,43.54
2017-05-16T07:03:01.151Z,43.35
2017-05-16T07:03:26.624Z,43.26
2017-05-16T07:03:52.108Z,43.45
2017-05-16T07:04:17.611Z,43.45
2017-05-16T07:04:43.046Z,43.35
2017-05-16T07:05:08.522Z,43.16
2017-05-16T07:05:34.001Z,43.35
2017-05-16T07:05:59.454Z,43.35
2017-05-16T07:06:24.933Z,43.64
2017-05-16T07:06:50.428Z,43.93
2017-05-16T07:07:15.894Z,43.93
2017-05-16T07:07:41.372Z,44.51
2017-05-16T07:08:06.850Z,44.6
2017-05-16T07:08:32.317Z,44.89
2017-05-16T07:08:57.798Z,45.47
2017-05-16T07:09:23.293Z,45.37
2017-05-16T07:09:48.776Z,45.37
2017-05-16T07:10:14.230Z,45.47
2017-05-16T07:10:39.702Z,45.37
2017-05-16T07:11:05.216Z,45.56
2017-05-16T07:11:30.703Z,45.85
2017-05-16T07:11:56.179Z,46.43
2017-05-16T07:12:21.646Z,46.72
2017-05-16T07:12:47.162Z,46.72
2017-05-16T07:13:12.647Z,46.53
2017-05-16T07:13:38.118Z,46.72
2017-05-16T07:14:03.591Z,47
2017-05-16T07:14:29.091Z,47.39
2017-05-16T07:14:54.599Z,47.1
2017-05-16T07:15:20.115Z,47.1
2017-05-16T07:15:45.583Z,47.3
2017-05-16T07:16:11.052Z,47.2
2017-05-16T07:16:36.511Z,47.97
2017-05-16T07:17:02.006Z,47.58
2017-05-16T07:17:27.474Z,48.07
2017-05-16T07:17:52.951Z,47.97
2017-05-16T07:18:18.395Z,48.07
2017-05-16T07:18:43.851Z,48.16
2017-05-16T07:19:09.337Z,47.87
2017-05-16T07:19:34.832Z,48.07
2017-05-16T07:20:00.297Z,48.07
2017-05-16T07:20:25.793Z,47.89
2017-05-16T07:20:51.287Z,48.07
2017-05-16T07:21:16.742Z,47.87
2017-05-16T07:21:42.215Z,47.77
2017-05-16T07:22:07.686Z,47.51
2017-05-16T07:22:33.196Z,47.58
2017-05-16T07:22:58.674Z,47.68
2017-05-16T07:23:24.158Z,47.8
2017-05-16T07:23:49.636Z,47.89
2017-05-16T07:24:15.116Z,47.49
2017-05-16T07:24:40.573Z,47.22
2017-05-16T07:25:06.083Z,47.31
2017-05-16T07:25:31.555Z,47.22
2017-05-16T07:25:57.045Z,47
2017-05-16T07:26:22.539Z,46.93
2017-05-16T07:26:48.024Z,46.74
2017-05-16T07:27:13.507Z,46.84
2017-05-16T07:27:39.014Z,46.93
2017-05-16T07:28:04.468Z,46.93
2017-05-16T07:28:29.974Z,46.93
2017-05-16T07:28:55.443Z,46.74
2017-05-16T07:29:20.944Z,46.93
2017-05-16T07:29:46.446Z,46.93
2017-05-16T07:30:11.890Z,46.84
2017-05-16T07:30:37.388Z,46.64
2017-05-16T07:31:02.860Z,46.64
2017-05-16T07:31:28.358Z,46.74
2017-05-16T07:31:53.837Z,46.74
2017-05-16T07:32:19.322Z,46.67
2017-05-16T07:32:44.804Z,46.86
2017-05-16T07:33:10.313Z,46.86
2017-05-16T07:33:35.782Z,46.77
2017-05-16T07:34:01.249Z,46.38
2017-05-16T07:34:26.718Z,45.99
2017-05-16T07:34:52.216Z,46.09
2017-05-16T07:35:17.676Z,46.19
2017-05-16T07:35:43.150Z,45.8
2017-05-16T07:36:08.622Z,46.09
2017-05-16T07:36:34.084Z,45.9
2017-05-16T07:36:59.578Z,45.51
2017-05-16T07:37:25.082Z,45.51
2017-05-16T07:37:50.524Z,45.61
2017-05-16T07:38:15.996Z,45.61
2017-05-16T07:38:41.461Z,45.7
2017-05-16T07:39:06.924Z,45.44
2017-05-16T07:39:32.428Z,45.53
2017-05-16T07:39:57.903Z,45.44
2017-05-16T07:40:23.375Z,45.44
2017-05-16T07:40:48.858Z,45.34
2017-05-16T07:41:14.356Z,45.63
2017-05-16T07:41:39.833Z,45.34
2017-05-16T07:42:05.310Z,45.73
2017-05-16T07:42:30.776Z,45.53
2017-05-16T07:42:56.217Z,45.63
2017-05-16T07:43:21.720Z,45.63
2017-05-16T07:43:47.253Z,45.53
2017-05-16T07:44:12.743Z,45.73
2017-05-16T07:44:38.237Z,45.34
2017-05-16T07:45:03.710Z,45.53
2017-05-16T07:45:29.189Z,45.44
2017-05-16T07:45:54.648Z,44.96
2017-05-16T07:46:20.124Z,44.96
2017-05-16T07:46:45.610Z,45.25
2017-05-16T07:47:11.069Z,45.05
2017-05-16T07:47:36.581Z,44.96
2017-05-16T07:48:02.077Z,44.96
2017-05-16T07:48:27.543Z,44.76
2017-05-16T07:48:53.031Z,44.67
2017-05-16T07:49:18.523Z,44.79
2017-05-16T07:49:43.993Z,44.59
2017-05-16T07:50:09.478Z,44.31
2017-05-16T07:50:34.939Z,44.59
2017-05-16T07:51:00.414Z,44.59
2017-05-16T07:51:25.883Z,44.59
2017-05-16T07:51:51.338Z,44.59
2017-05-16T07:52:16.849Z,44.31
2017-05-16T07:52:42.318Z,44.4
2017-05-16T07:53:07.791Z,44.69
2017-05-16T07:53:33.281Z,44.59
2017-05-16T07:53:58.763Z,44.59
2017-05-16T07:54:24.231Z,44.69
2017-05-16T07:54:49.708Z,44.79
2017-05-16T07:55:15.179Z,44.69
2017-05-16T07:55:40.655Z,44.59
2017-05-16T07:56:06.156Z,44.69
2017-05-16T07:56:31.626Z,44.49
2017-05-16T07:56:57.132Z,44.49
2017-05-16T07:57:22.589Z,44.11
2017-05-16T07:57:48.067Z,44.21
2017-05-16T07:58:13.547Z,44.4
2017-05-16T07:58:39.028Z,44.59
2017-05-16T07:59:04.515Z,44.59
2017-05-16T07:59:30.009Z,44.4
2017-05-16T07:59:55.534Z,44.4
2017-05-16T08:00:20.957Z,44.59
2017-05-16T08:00:46.439Z,44.69
2017-05-16T08:01:11.918Z,44.49
2017-05-16T08:01:37.407Z,44.31
2017-05-16T08:02:02.864Z,44.49
2017-05-16T08:02:28.356Z,44.69
2017-05-16T08:02:53.837Z,44.81
2017-05-16T08:03:19.317Z,44.9
2017-05-16T08:03:44.785Z,44.9
2017-05-16T08:04:10.273Z,44.9
2017-05-16T08:04:35.752Z,44.9
2017-05-16T08:05:01.242Z,44.62
2017-05-16T08:05:26.720Z,44.32
2017-05-16T08:05:52.200Z,44.62
2017-05-16T08:06:17.652Z,44.62
2017-05-16T08:06:43.107Z,44.32
2017-05-16T08:07:08.583Z,44.62
2017-05-16T08:07:34.061Z,44.71
2017-05-16T08:07:59.568Z,44.71
2017-05-16T08:08:25.049Z,44.62
2017-05-16T08:08:50.545Z,44.52
2017-05-16T08:09:16.028Z,44.62
2017-05-16T08:09:41.465Z,44.62
2017-05-16T08:10:06.957Z,44.62
2017-05-16T08:10:32.438Z,44.52
2017-05-16T08:10:57.948Z,44.23
2017-05-16T08:11:23.429Z,44.52
2017-05-16T08:11:48.909Z,44.13
2017-05-16T08:12:14.418Z,44.42
2017-05-16T08:12:39.890Z,44.52
2017-05-16T08:13:05.351Z,44.42
2017-05-16T08:13:30.822Z,44.81
2017-05-16T08:13:56.292Z,45
2017-05-16T08:14:21.767Z,44.71
2017-05-16T08:14:47.257Z,44.9
2017-05-16T08:15:12.703Z,45
2017-05-16T08:15:38.157Z,45
2017-05-16T08:16:03.638Z,44.9
2017-05-16T08:16:29.113Z,45
2017-05-16T08:16:54.574Z,45
2017-05-16T08:17:20.048Z,44.71
2017-05-16T08:17:45.520Z,44.71
2017-05-16T08:18:11.001Z,44.71
2017-05-16T08:18:36.482Z,44.71
2017-05-16T08:19:01.961Z,44.83
2017-05-16T08:19:27.415Z,44.73
2017-05-16T08:19:52.907Z,44.54
2017-05-16T08:20:18.370Z,44.42
2017-05-16T08:20:43.856Z,44.73
2017-05-16T08:21:09.361Z,44.64
2017-05-16T08:21:34.865Z,44.64
2017-05-16T08:22:00.315Z,44.73
2017-05-16T08:22:25.796Z,44.64
2017-05-16T08:22:51.301Z,44.64
2017-05-16T08:23:16.774Z,44.64
2017-05-16T08:23:42.267Z,44.25
2017-05-16T08:24:07.768Z,44.73
2017-05-16T08:24:33.227Z,44.64
2017-05-16T08:24:58.716Z,44.73
2017-05-16T08:25:24.186Z,44.35
2017-05-16T08:25:49.655Z,44.25
2017-05-16T08:26:15.120Z,44.54
2017-05-16T08:26:40.609Z,44.45
2017-05-16T08:27:06.071Z,44.45
2017-05-16T08:27:31.557Z,44.45
2017-05-16T08:27:57.047Z,44.18
2017-05-16T08:28:22.537Z,44.35
2017-05-16T08:28:47.998Z,44.35
2017-05-16T08:29:13.464Z,44.15
2017-05-16T08:29:38.931Z,44.27
2017-05-16T08:30:04.433Z,43.87
2017-05-16T08:30:29.936Z,44.37
2017-05-16T08:30:55.415Z,43.87
2017-05-16T08:31:20.896Z,44.27
2017-05-16T08:31:46.410Z,44.06
2017-05-16T08:32:11.848Z,44.18
2017-05-16T08:32:37.345Z,44.18
2017-05-16T08:33:02.812Z,44.08
2017-05-16T08:33:28.300Z,44.18
2017-05-16T08:33:53.801Z,43.89
2017-05-16T08:34:19.287Z,43.98
2017-05-16T08:34:44.776Z,44.37
2017-05-16T08:35:10.262Z,44.18
2017-05-16T08:35:35.752Z,43.89
2017-05-16T08:36:01.281Z,44.08
2017-05-16T08:36:26.742Z,43.98
2017-05-16T08:36:52.198Z,43.7
2017-05-16T08:37:17.658Z,43.79
2017-05-16T08:37:43.169Z,43.7
2017-05-16T08:38:08.640Z,43.5
2017-05-16T08:38:34.108Z,43.41
2017-05-16T08:38:59.572Z,43.52
2017-05-16T08:39:25.072Z,43.6
2017-05-16T08:39:50.550Z,43.91
2017-05-16T08:40:15.994Z,43.43
2017-05-16T08:40:41.467Z,43.33
2017-05-16T08:41:06.949Z,43.33
2017-05-16T08:41:32.434Z,43.33
2017-05-16T08:41:57.927Z,43.52
2017-05-16T08:42:23.405Z,43.04
2017-05-16T08:42:48.892Z,42.85
2017-05-16T08:43:14.360Z,43.14
2017-05-16T08:43:39.848Z,42.85
2017-05-16T08:44:05.346Z,42.94
2017-05-16T08:44:30.841Z,43.04
2017-05-16T08:44:56.287Z,43.04
2017-05-16T08:45:21.728Z,42.85
2017-05-16T08:45:47.240Z,43.04
2017-05-16T08:46:12.735Z,43.04
2017-05-16T08:46:38.228Z,42.85
2017-05-16T08:47:03.710Z,43.14
2017-05-16T08:47:29.214Z,42.87
2017-05-16T08:47:54.686Z,43.06
2017-05-16T08:48:20.165Z,42.87
2017-05-16T08:48:45.642Z,42.87
2017-05-16T08:49:11.169Z,42.68
2017-05-16T08:49:36.601Z,42.58
2017-05-16T08:50:02.068Z,42.68
2017-05-16T08:50:27.558Z,42.77
2017-05-16T08:50:53.052Z,43.06
2017-05-16T08:51:18.502Z,42.87
2017-05-16T08:51:43.977Z,42.68
2017-05-16T08:52:09.483Z,42.6
2017-05-16T08:52:34.979Z,42.7
2017-05-16T08:53:00.453Z,42.5
2017-05-16T08:53:25.953Z,42.7
2017-05-16T08:53:51.447Z,42.7
2017-05-16T08:54:16.916Z,42.5
2017-05-16T08:54:42.416Z,42.02
2017-05-16T08:55:07.865Z,41.94
2017-05-16T08:55:33.345Z,41.85
2017-05-16T08:55:58.820Z,41.75
2017-05-16T08:56:24.295Z,41.85
2017-05-16T08:56:49.767Z,41.46
2017-05-16T08:57:15.257Z,41.75
2017-05-16T08:57:40.756Z,41.56
2017-05-16T08:58:06.247Z,41.75
2017-05-16T08:58:31.718Z,41.56
2017-05-16T08:58:57.236Z,41.56
2017-05-16T08:59:22.707Z,41.56
2017-05-16T08:59:48.169Z,41.66
2017-05-16T09:00:13.661Z,41.75
2017-05-16T09:00:39.160Z,41.75
2017-05-16T09:01:04.660Z,41.85
2017-05-16T09:01:30.206Z,41.66
2017-05-16T09:01:55.677Z,42.07
2017-05-16T09:02:21.153Z,41.97
2017-05-16T09:02:46.628Z,41.56
2017-05-16T09:03:12.103Z,41.75
2017-05-16T09:03:37.570Z,41.85
2017-05-16T09:04:03.037Z,41.75
2017-05-16T09:04:28.524Z,41.56
2017-05-16T09:04:54.027Z,41.56
2017-05-16T09:05:19.521Z,41.66
2017-05-16T09:05:45.011Z,41.75
2017-05-16T09:06:10.502Z,41.66
2017-05-16T09:06:35.962Z,41.75
2017-05-16T09:07:01.475Z,41.66
2017-05-16T09:07:26.985Z,41.66
2017-05-16T09:07:52.470Z,41.75
2017-05-16T09:08:17.957Z,41.75
2017-05-16T09:08:43.431Z,41.85
2017-05-16T09:09:08.921Z,41.56
2017-05-16T09:09:34.379Z,41.58
2017-05-16T09:09:59.869Z,41.46
2017-05-16T09:10:25.348Z,41.77
2017-05-16T09:10:50.824Z,41.87
2017-05-16T09:11:16.292Z,41.97
2017-05-16T09:11:41.772Z,41.58
2017-05-16T09:12:07.268Z,41.56
2017-05-16T09:12:32.767Z,41.85
2017-05-16T09:12:58.231Z,41.75
2017-05-16T09:13:23.708Z,41.77
2017-05-16T09:13:49.256Z,41.66
2017-05-16T09:14:14.698Z,42.14
2017-05-16T09:14:40.173Z,42.24
2017-05-16T09:15:05.657Z,42.43
2017-05-16T09:15:31.124Z,42.43
2017-05-16T09:15:56.571Z,42.52
2017-05-16T09:16:22.045Z,42.45
2017-05-16T09:16:47.533Z,42.82
2017-05-16T09:17:13.031Z,42.62
2017-05-16T09:17:38.503Z,42.91
2017-05-16T09:18:03.937Z,42.62
2017-05-16T09:18:29.432Z,42.72
2017-05-16T09:18:54.912Z,42.91
2017-05-16T09:19:20.386Z,42.72
2017-05-16T09:19:45.884Z,42.72
2017-05-16T09:20:11.345Z,42.62
2017-05-16T09:20:36.821Z,43.1
2017-05-16T09:21:02.318Z,42.62
2017-05-16T09:21:27.821Z,42.52
2017-05-16T09:21:53.292Z,42.43
2017-05-16T09:22:18.751Z,42.14
2017-05-16T09:22:44.240Z,42.33
2017-05-16T09:23:09.723Z,42.43
2017-05-16T09:23:35.188Z,42.72
2017-05-16T09:24:00.680Z,42.52
2017-05-16T09:24:26.144Z,42.62
2017-05-16T09:24:51.625Z,42.91
2017-05-16T09:25:17.098Z,42.5
2017-05-16T09:25:42.582Z,42.89
2017-05-16T09:26:08.045Z,42.89
2017-05-16T09:26:33.522Z,42.89
2017-05-16T09:26:59.000Z,43.1
2017-05-16T09:27:24.456Z,43.28
2017-05-16T09:27:49.942Z,43.1
2017-05-16T09:28:15.440Z,42.91
2017-05-16T09:28:40.912Z,43.37
2017-05-16T09:29:06.411Z,43.4
2017-05-16T09:29:31.890Z,43.4
2017-05-16T09:29:57.357Z,43.18
2017-05-16T09:30:22.834Z,43.57
2017-05-16T09:30:48.341Z,43.18
2017-05-16T09:31:13.820Z,43.1
2017-05-16T09:31:39.333Z,42.91
2017-05-16T09:32:04.765Z,42.91
2017-05-16T09:32:30.255Z,43.01
2017-05-16T09:32:55.755Z,43.1
2017-05-16T09:33:21.229Z,43.01
2017-05-16T09:34:14.157Z,43.4
2017-05-16T09:34:39.656Z,42.91
2017-05-16T09:35:05.147Z,42.82
2017-05-16T09:35:30.596Z,42.62
2017-05-16T09:35:56.075Z,43.03
2017-05-16T09:36:21.541Z,42.65
2017-05-16T09:36:47.024Z,42.55
2017-05-16T09:37:12.503Z,42.45
2017-05-16T09:37:37.985Z,42.55
2017-05-16T09:38:03.460Z,42.45
2017-05-16T09:38:28.950Z,42.57
2017-05-16T09:38:54.437Z,42.57
2017-05-16T09:39:19.923Z,42.66
2017-05-16T09:39:45.389Z,42.37
2017-05-16T09:40:10.887Z,41.6
2017-05-16T09:40:36.383Z,41.79
2017-05-16T09:41:01.842Z,41.41
2017-05-16T09:41:27.313Z,41.42
2017-05-16T09:41:52.787Z,41.33
2017-05-16T09:42:18.271Z,41.24
2017-05-16T09:42:43.761Z,40.65
2017-05-16T09:43:09.262Z,40.65
2017-05-16T09:43:34.750Z,41.04
2017-05-16T09:44:00.239Z,40.84
2017-05-16T09:44:25.745Z,41.14
2017-05-16T09:44:51.231Z,41.04
2017-05-16T09:45:16.690Z,41.14
2017-05-16T09:45:42.177Z,41.24
2017-05-16T09:46:07.687Z,40.75
2017-05-16T09:46:33.165Z,40.65
2017-05-16T09:46:58.645Z,40.75
2017-05-16T09:47:24.132Z,40.36
2017-05-16T09:47:49.591Z,40.36
2017-05-16T09:48:15.077Z,39.97
2017-05-16T09:48:40.562Z,40.46
2017-05-16T09:49:06.057Z,40.65
2017-05-16T09:49:31.557Z,40.46
2017-05-16T09:49:57.003Z,40.84
2017-05-16T09:50:22.473Z,40.75
2017-05-16T09:50:47.932Z,41.04
2017-05-16T09:51:13.425Z,40.75
2017-05-16T09:51:38.872Z,40.53
2017-05-16T09:52:04.344Z,40.84
2017-05-16T09:52:29.811Z,40.73
2017-05-16T09:52:55.308Z,40.92
2017-05-16T09:53:20.776Z,40.63
2017-05-16T09:53:46.273Z,40.83
2017-05-16T09:54:11.821Z,40.92
2017-05-16T09:54:37.283Z,40.92
2017-05-16T09:55:02.747Z,41.02
2017-05-16T09:55:28.213Z,41.02
2017-05-16T09:55:53.698Z,40.84
2017-05-16T09:56:19.152Z,40.92
2017-05-16T09:56:44.663Z,41.11
2017-05-16T09:57:10.126Z,41.02
2017-05-16T09:57:35.585Z,40.92
2017-05-16T09:58:01.051Z,41.31
2017-05-16T09:58:26.532Z,41.31
2017-05-16T09:58:52.011Z,41.02
2017-05-16T09:59:17.502Z,40.92
2017-05-16T09:59:42.952Z,40.92
2017-05-16T10:00:08.442Z,41.5
2017-05-16T10:00:33.906Z,41.42
2017-05-16T10:00:59.392Z,41.5
2017-05-16T10:01:24.867Z,41.5
2017-05-16T10:01:50.346Z,41.62
2017-05-16T10:02:15.820Z,41.91
2017-05-16T10:02:41.285Z,41.91
2017-05-16T10:03:06.751Z,41.91
2017-05-16T10:03:32.236Z,41.82
2017-05-16T10:03:57.718Z,41.82
2017-05-16T10:04:23.222Z,41.82
2017-05-16T10:04:48.697Z,41.82
2017-05-16T10:05:14.162Z,42
2017-05-16T10:05:39.641Z,41.62
2017-05-16T10:06:05.129Z,41.62
2017-05-16T10:06:30.584Z,41.06
2017-05-16T10:06:56.065Z,40.65
2017-05-16T10:07:21.541Z,41.16
2017-05-16T10:07:47.025Z,40.94
2017-05-16T10:08:12.503Z,41.04
2017-05-16T10:08:37.972Z,40.75
2017-05-16T10:09:03.458Z,40.75
2017-05-16T10:09:28.949Z,40.84
2017-05-16T10:09:54.453Z,40.75
2017-05-16T10:10:19.957Z,40.65
2017-05-16T10:10:45.424Z,41.04
2017-05-16T10:11:10.913Z,40.65
2017-05-16T10:11:36.394Z,41.14
2017-05-16T10:12:01.901Z,41.33
2017-05-16T10:12:27.385Z,41.33
2017-05-16T10:12:52.835Z,41.14
2017-05-16T10:13:18.376Z,41.14